createdAt,value
2019-04-14T00:01:21.643Z,53.94
2019-04-14T00:03:50.337Z,54.16
2019-04-14T00:06:18.069Z,54.31
2019-04-14T00:08:45.910Z,54.16
2019-04-14T00:11:12.861Z,54.05
2019-04-14T00:13:39.774Z,54.22
2019-04-14T00:16:07.407Z,54.15
2019-04-14T00:18:34.404Z,54.31
2019-04-14T00:21:02.263Z,54.25
2019-04-14T00:23:30.226Z,54.49
2019-04-14T00:25:58.452Z,54.95
2019-04-14T00:28:27.064Z,54.93
2019-04-14T00:30:55.299Z,54.71
2019-04-14T00:33:28.112Z,54.63
2019-04-14T00:36:00.229Z,54.81
2019-04-14T00:38:30.136Z,54.73
2019-04-14T00:40:58.889Z,55.03
2019-04-14T00:43:28.716Z,54.97
2019-04-14T00:46:00.545Z,54.72
2019-04-14T00:48:27.740Z,54.91
2019-04-14T00:50:56.013Z,55.41
2019-04-14T00:53:25.587Z,55.05
2019-04-14T00:55:53.315Z,54.73
2019-04-14T00:58:21.473Z,54.87
2019-04-14T01:00:50.094Z,55.31
2019-04-14T01:03:17.741Z,55.18
2019-04-14T01:05:45.910Z,55.70
2019-04-14T01:08:14.040Z,55.05
2019-04-14T01:10:41.318Z,55.43
2019-04-14T01:13:10.839Z,54.92
2019-04-14T01:15:49.216Z,55.14
2019-04-14T01:18:05.821Z,55.42
2019-04-14T01:20:33.867Z,55.27
2019-04-14T01:23:02.059Z,55.36
2019-04-14T01:25:30.223Z,54.86
2019-04-14T01:27:58.209Z,55.16
2019-04-14T01:30:26.190Z,54.94
2019-04-14T01:32:54.379Z,54.57
2019-04-14T01:35:21.300Z,54.97
2019-04-14T01:37:48.678Z,54.52
2019-04-14T01:40:16.395Z,55.13
2019-04-14T01:42:44.214Z,54.58
2019-04-14T01:45:12.747Z,54.74
2019-04-14T01:47:39.966Z,54.95
2019-04-14T01:50:07.014Z,55.02
2019-04-14T01:52:38.484Z,54.92
2019-04-14T01:55:07.054Z,54.73
2019-04-14T01:57:41.657Z,54.69
2019-04-14T02:00:27.023Z,54.87
2019-04-14T02:02:53.952Z,54.56
2019-04-14T02:05:21.430Z,54.80
2019-04-14T02:07:49.402Z,54.68
2019-04-14T02:10:17.261Z,54.72
2019-04-14T02:12:45.222Z,54.66
2019-04-14T02:15:13.359Z,54.52
2019-04-14T02:17:41.561Z,54.70
2019-04-14T02:20:09.927Z,54.67
2019-04-14T02:22:37.615Z,54.59
2019-04-14T02:25:05.579Z,54.59
2019-04-14T02:27:33.864Z,54.51
2019-04-14T02:30:03.512Z,54.59
2019-04-14T02:32:57.470Z,54.64
2019-04-14T02:35:32.678Z,54.53
2019-04-14T02:37:55.936Z,54.49
2019-04-14T02:40:28.607Z,54.61
2019-04-14T02:42:46.741Z,54.51
2019-04-14T02:45:32.210Z,54.70
2019-04-14T02:50:12.187Z,54.53
2019-04-14T02:53:01.200Z,54.47
2019-04-14T02:55:08.573Z,54.56
2019-04-14T02:57:41.672Z,54.46
2019-04-14T03:02:40.832Z,54.47
2019-04-14T03:05:04.117Z,54.52
2019-04-14T03:07:40.194Z,54.39
2019-04-14T03:10:01.127Z,54.39
2019-04-14T03:12:32.635Z,54.56
2019-04-14T03:15:01.564Z,54.31
2019-04-14T03:17:47.380Z,54.24
2019-04-14T03:20:20.141Z,54.17
2019-04-14T03:22:43.877Z,54.27
2019-04-14T03:25:16.686Z,54.43
2019-04-14T03:27:55.077Z,54.43
2019-04-14T03:30:53.772Z,54.17
2019-04-14T03:35:58.053Z,54.31
2019-04-14T03:37:56.596Z,54.39
2019-04-14T03:40:19.788Z,53.98
2019-04-14T03:47:56.254Z,54.24
2019-04-14T03:50:16.547Z,54.06
2019-04-14T03:55:01.135Z,54.03
2019-04-14T03:57:14.865Z,54.15
2019-04-14T03:59:41.890Z,54.29
2019-04-14T04:02:09.669Z,54.18
2019-04-14T04:04:37.940Z,54.27
2019-04-14T04:07:06.046Z,54.30
2019-04-14T04:09:38.855Z,54.25
2019-04-14T04:12:05.919Z,54.32
2019-04-14T04:14:33.444Z,54.29
2019-04-14T04:17:02.236Z,54.30
2019-04-14T04:19:42.782Z,54.30
2019-04-14T04:22:28.213Z,54.20
2019-04-14T04:25:03.031Z,54.22
2019-04-14T04:27:37.752Z,54.08
2019-04-14T04:30:10.114Z,54.24
2019-04-14T04:32:55.799Z,54.03
2019-04-14T04:35:30.702Z,54.19
2019-04-14T04:38:05.219Z,54.22
2019-04-14T04:40:33.241Z,54.14
2019-04-14T04:43:01.249Z,54.24
2019-04-14T04:45:28.259Z,54.25
2019-04-14T04:47:55.617Z,54.25
2019-04-14T04:50:23.800Z,54.22
2019-04-14T04:52:51.762Z,54.07
2019-04-14T04:55:19.760Z,54.05
2019-04-14T04:57:46.755Z,54.22
2019-04-14T05:00:13.747Z,54.22
2019-04-14T05:02:41.701Z,54.22
2019-04-14T05:05:09.824Z,54.21
2019-04-14T05:07:36.924Z,53.99
2019-04-14T05:10:11.345Z,54.11
2019-04-14T05:12:41.196Z,54.18
2019-04-14T05:15:09.904Z,53.78
2019-04-14T05:17:41.531Z,54.04
2019-04-14T05:20:09.497Z,54.06
2019-04-14T05:22:37.547Z,54.11
2019-04-14T05:25:05.662Z,53.94
2019-04-14T05:27:34.064Z,54.00
2019-04-14T05:30:02.564Z,54.00
2019-04-14T05:32:30.529Z,54.06
2019-04-14T05:34:58.608Z,54.06
2019-04-14T05:37:26.790Z,54.08
2019-04-14T05:39:54.839Z,53.87
2019-04-14T05:42:25.165Z,54.10
2019-04-14T05:44:51.443Z,53.94
2019-04-14T05:47:19.644Z,54.04
2019-04-14T05:49:50.098Z,53.99
2019-04-14T05:52:16.324Z,53.95
2019-04-14T05:54:43.309Z,53.98
2019-04-14T05:57:11.226Z,54.06
2019-04-14T05:59:38.230Z,53.90
2019-04-14T06:02:05.207Z,54.05
2019-04-14T06:04:33.106Z,53.97
2019-04-14T06:07:00.228Z,54.02
2019-04-14T06:09:27.250Z,54.07
2019-04-14T06:11:54.189Z,53.87
2019-04-14T06:14:21.160Z,53.54
2019-04-14T06:16:48.189Z,53.88
2019-04-14T06:19:15.181Z,53.74
2019-04-14T06:21:42.112Z,54.02
2019-04-14T06:24:09.061Z,53.99
2019-04-14T06:26:36.043Z,53.72
2019-04-14T06:29:02.991Z,53.90
2019-04-14T06:31:31.529Z,53.83
2019-04-14T06:34:03.207Z,53.68
2019-04-14T06:36:34.629Z,53.85
2019-04-14T06:39:12.073Z,53.89
2019-04-14T06:41:38.983Z,53.88
2019-04-14T06:44:05.914Z,53.97
2019-04-14T06:46:32.894Z,53.84
2019-04-14T06:48:59.811Z,53.86
2019-04-14T06:51:26.729Z,53.77
2019-04-14T06:53:53.669Z,53.86
2019-04-14T06:56:20.592Z,53.85
2019-04-14T06:58:47.530Z,53.52
2019-04-14T07:01:14.437Z,53.76
2019-04-14T07:03:41.389Z,53.87
2019-04-14T07:06:08.295Z,53.87
2019-04-14T07:08:35.306Z,53.84
2019-04-14T07:11:02.280Z,53.93
2019-04-14T07:13:29.186Z,53.77
2019-04-14T07:15:56.153Z,53.87
2019-04-14T07:18:23.086Z,53.48
2019-04-14T07:20:50.036Z,53.75
2019-04-14T07:23:16.961Z,53.80
2019-04-14T07:25:43.897Z,53.93
2019-04-14T07:28:10.791Z,53.74
2019-04-14T07:30:42.300Z,53.55
2019-04-14T07:33:22.892Z,53.86
2019-04-14T07:35:57.396Z,53.71
2019-04-14T07:38:34.950Z,53.82
2019-04-14T07:41:20.257Z,53.73
2019-04-14T07:44:05.283Z,53.48
2019-04-14T07:46:45.983Z,53.79
2019-04-14T07:49:17.316Z,53.79
2019-04-14T07:51:55.073Z,53.82
2019-04-14T07:54:23.670Z,53.74
2019-04-14T07:56:52.234Z,53.54
2019-04-14T07:59:20.806Z,53.57
2019-04-14T08:01:55.479Z,53.82
2019-04-14T08:04:24.068Z,53.91
2019-04-14T08:06:52.709Z,53.57
2019-04-14T08:09:19.595Z,53.73
2019-04-14T08:11:46.583Z,53.75
2019-04-14T08:14:13.490Z,53.75
2019-04-14T08:16:40.411Z,53.79
2019-04-14T08:19:07.342Z,53.54
2019-04-14T08:21:34.254Z,53.84
2019-04-14T08:24:01.192Z,53.79
2019-04-14T08:26:28.098Z,53.81
2019-04-14T08:28:55.040Z,53.71
2019-04-14T08:31:22.025Z,53.72
2019-04-14T08:33:48.928Z,53.60
2019-04-14T08:36:15.873Z,53.50
2019-04-14T08:38:42.816Z,53.57
2019-04-14T08:41:09.755Z,53.29
2019-04-14T08:43:41.052Z,53.63
2019-04-14T08:46:09.628Z,53.39
2019-04-14T08:48:43.970Z,53.47
2019-04-14T08:51:29.759Z,53.39
2019-04-14T08:54:15.032Z,53.23
2019-04-14T08:56:52.478Z,53.14
2019-04-14T08:59:21.065Z,53.10
2019-04-14T09:01:52.456Z,53.09
2019-04-14T09:04:21.044Z,53.01
2019-04-14T09:06:49.590Z,52.81
2019-04-14T09:09:20.825Z,52.78
2019-04-14T09:11:49.419Z,52.80
2019-04-14T09:14:16.338Z,52.81
2019-04-14T09:16:43.377Z,52.83
2019-04-14T09:19:10.315Z,52.75
2019-04-14T09:21:37.287Z,52.64
2019-04-14T09:24:04.225Z,52.51
2019-04-14T09:26:31.174Z,52.69
2019-04-14T09:28:58.067Z,52.65
2019-04-14T09:31:25.014Z,52.59
2019-04-14T09:33:51.986Z,52.56
2019-04-14T09:36:18.924Z,52.52
2019-04-14T09:38:45.858Z,52.42
2019-04-14T09:41:12.793Z,52.42
2019-04-14T09:43:39.743Z,52.44
2019-04-14T09:46:06.658Z,52.36
2019-04-14T09:48:33.601Z,52.37
2019-04-14T09:51:05.019Z,52.38
2019-04-14T09:53:29.139Z,52.37
2019-04-14T09:55:56.057Z,52.27
2019-04-14T09:58:22.991Z,52.25
2019-04-14T10:00:49.995Z,52.25
2019-04-14T10:03:16.942Z,51.91
2019-04-14T10:05:43.907Z,43.37
2019-04-14T10:08:10.842Z,48.33
2019-04-14T10:10:37.826Z,41.97
2019-04-14T10:13:04.821Z,46.78
2019-04-14T10:15:31.787Z,46.36
2019-04-14T10:17:58.742Z,44.77
2019-04-14T10:20:25.657Z,46.01
2019-04-14T10:22:52.560Z,45.63
2019-04-14T10:25:19.461Z,45.62
2019-04-14T10:27:46.394Z,47.15
2019-04-14T10:30:13.316Z,46.68
2019-04-14T10:32:40.213Z,46.85
2019-04-14T10:35:07.157Z,46.57
2019-04-14T10:37:34.051Z,47.47
2019-04-14T10:40:00.951Z,47.68
2019-04-14T10:42:27.870Z,47.61
2019-04-14T10:44:54.781Z,47.62
2019-04-14T10:47:21.692Z,47.19
2019-04-14T10:49:48.591Z,47.48
2019-04-14T10:52:15.504Z,47.66
2019-04-14T10:54:42.453Z,47.85
2019-04-14T10:57:09.328Z,46.88
2019-04-14T10:59:36.246Z,47.62
2019-04-14T11:02:03.225Z,47.53
2019-04-14T11:04:30.126Z,47.74
2019-04-14T11:06:58.681Z,47.88
2019-04-14T11:09:25.630Z,48.12
2019-04-14T11:12:11.736Z,48.10
2019-04-14T11:14:38.654Z,48.05
2019-04-14T11:17:05.546Z,48.05
2019-04-14T11:19:32.460Z,48.06
2019-04-14T11:21:59.373Z,48.11
2019-04-14T11:24:26.294Z,48.07
2019-04-14T11:26:53.215Z,48.11
2019-04-14T11:29:20.116Z,48.22
2019-04-14T11:31:54.557Z,48.10
2019-04-14T11:34:23.095Z,48.20
2019-04-14T11:37:08.058Z,48.16
2019-04-14T11:39:34.976Z,48.15
2019-04-14T11:42:01.883Z,48.17
2019-04-14T11:44:28.800Z,48.14
2019-04-14T11:46:55.714Z,48.07
2019-04-14T11:49:22.638Z,48.10
2019-04-14T11:51:55.506Z,47.94
2019-04-14T11:54:18.113Z,48.15
2019-04-14T11:56:45.041Z,48.17
2019-04-14T11:59:12.050Z,48.15
2019-04-14T12:01:49.784Z,48.12
2019-04-14T12:04:24.251Z,48.29
2019-04-14T12:07:09.024Z,48.18
2019-04-14T12:09:37.576Z,48.22
2019-04-14T12:12:06.157Z,48.27
2019-04-14T12:14:33.066Z,48.15
2019-04-14T12:16:59.973Z,48.13
2019-04-14T12:19:26.909Z,48.22
2019-04-14T12:21:53.816Z,48.28
2019-04-14T12:24:20.715Z,48.23
2019-04-14T12:26:47.628Z,48.16
2019-04-14T12:29:14.537Z,48.12
2019-04-14T12:31:42.003Z,48.07
2019-04-14T12:34:09.028Z,48.08
2019-04-14T12:36:35.936Z,48.06
2019-04-14T12:39:03.444Z,48.10
2019-04-14T12:41:41.176Z,48.14
2019-04-14T12:44:25.072Z,48.10
2019-04-14T12:47:08.692Z,48.11
2019-04-14T12:49:46.486Z,48.15
2019-04-14T12:52:22.030Z,48.13
2019-04-14T12:54:49.108Z,48.17
2019-04-14T12:57:17.657Z,48.16
2019-04-14T12:59:44.592Z,48.27
2019-04-14T13:02:25.215Z,48.34
2019-04-14T13:04:55.196Z,48.23
2019-04-14T13:07:21.074Z,48.26
2019-04-14T13:09:47.944Z,48.32
2019-04-14T13:12:14.856Z,48.31
2019-04-14T13:14:41.769Z,48.37
2019-04-14T13:17:08.697Z,48.40
2019-04-14T13:19:35.607Z,48.35
2019-04-14T13:22:02.516Z,48.32
2019-04-14T13:24:29.437Z,48.28
2019-04-14T13:26:56.368Z,48.33
2019-04-14T13:29:23.267Z,48.13
2019-04-14T13:31:50.176Z,48.07
2019-04-14T13:34:17.079Z,48.00
2019-04-14T13:36:43.996Z,47.88
2019-04-14T13:39:12.718Z,47.82
2019-04-14T13:41:39.465Z,47.88
2019-04-14T13:44:06.396Z,47.79
2019-04-14T13:46:33.309Z,47.87
2019-04-14T13:49:00.208Z,47.88
2019-04-14T13:51:27.119Z,47.98
2019-04-14T13:53:54.033Z,47.97
2019-04-14T13:56:20.964Z,48.00
2019-04-14T13:58:47.864Z,47.96
2019-04-14T14:01:14.772Z,48.01
2019-04-14T14:03:41.702Z,48.04
2019-04-14T14:06:08.611Z,48.05
2019-04-14T14:08:35.541Z,48.07
2019-04-14T14:11:16.248Z,48.17
2019-04-14T14:13:47.994Z,48.10
2019-04-14T14:16:32.996Z,48.18
2019-04-14T14:19:01.569Z,48.24
2019-04-14T14:21:39.359Z,48.24
2019-04-14T14:24:24.168Z,48.26
2019-04-14T14:26:52.696Z,48.30
2019-04-14T14:29:19.609Z,48.34
2019-04-14T14:31:46.536Z,48.24
2019-04-14T14:34:13.445Z,48.34
2019-04-14T14:36:40.355Z,48.35
2019-04-14T14:39:07.536Z,48.32
2019-04-14T14:41:34.444Z,48.34
2019-04-14T14:44:01.619Z,48.35
2019-04-14T14:46:46.297Z,47.96
2019-04-14T14:49:33.098Z,47.66
2019-04-14T14:52:13.675Z,47.99
2019-04-14T14:54:40.637Z,47.49
2019-04-14T14:57:07.520Z,47.42
2019-04-14T14:59:34.627Z,47.34
2019-04-14T15:02:01.512Z,47.69
2019-04-14T15:04:28.587Z,47.84
2019-04-14T15:06:55.476Z,47.89
2019-04-14T15:09:22.424Z,47.88
2019-04-14T15:11:49.369Z,47.87
2019-04-14T15:14:16.384Z,47.86
2019-04-14T15:16:43.342Z,47.97
2019-04-14T15:19:10.248Z,48.06
2019-04-14T15:21:37.189Z,48.08
2019-04-14T15:24:04.223Z,48.11
2019-04-14T15:26:31.167Z,48.20
2019-04-14T15:28:58.069Z,48.28
2019-04-14T15:31:24.976Z,48.34
2019-04-14T15:33:51.888Z,48.38
2019-04-14T15:36:18.804Z,48.47
2019-04-14T15:38:45.748Z,48.50
2019-04-14T15:41:12.648Z,48.56
2019-04-14T15:43:39.576Z,48.59
2019-04-14T15:46:06.534Z,48.71
2019-04-14T15:48:33.449Z,48.81
2019-04-14T15:51:00.403Z,48.83
2019-04-14T15:53:37.228Z,48.89
2019-04-14T15:55:55.955Z,48.90
2019-04-14T15:58:39.544Z,48.99
2019-04-14T16:01:08.117Z,49.04
2019-04-14T16:03:39.404Z,49.06
2019-04-14T16:06:07.976Z,49.11
2019-04-14T16:08:45.776Z,49.16
2019-04-14T16:11:17.074Z,49.18
2019-04-14T16:13:45.647Z,49.30
2019-04-14T16:16:29.484Z,49.38
2019-04-14T16:19:09.826Z,49.47
2019-04-14T16:21:36.753Z,49.43
2019-04-14T16:24:03.695Z,49.50
2019-04-14T16:26:35.319Z,49.62
2019-04-14T16:29:09.916Z,49.55
2019-04-14T16:31:44.473Z,49.57
2019-04-14T16:34:15.987Z,49.62
2019-04-14T16:36:44.544Z,49.70
2019-04-14T16:39:11.454Z,49.69
2019-04-14T16:41:38.362Z,49.75
2019-04-14T16:44:05.276Z,49.79
2019-04-14T16:46:32.216Z,49.84
2019-04-14T16:48:59.136Z,49.74
2019-04-14T16:51:39.758Z,49.72
2019-04-14T16:54:26.437Z,49.77
2019-04-14T16:57:00.703Z,49.67
2019-04-14T16:59:27.628Z,49.72
2019-04-14T17:01:54.552Z,49.70
2019-04-14T17:04:21.465Z,49.73
2019-04-14T17:06:48.454Z,49.67
2019-04-14T17:09:15.382Z,49.76
2019-04-14T17:11:42.292Z,49.73
2019-04-14T17:14:10.862Z,49.86
2019-04-14T17:16:42.359Z,49.86
2019-04-14T17:19:27.279Z,49.83
2019-04-14T17:21:55.869Z,49.90
2019-04-14T17:24:33.433Z,49.97
2019-04-14T17:27:01.984Z,49.99
2019-04-14T17:29:30.518Z,50.08
2019-04-14T17:31:59.102Z,50.17
2019-04-14T17:34:33.814Z,50.15
2019-04-14T17:37:14.559Z,50.22
2019-04-14T17:39:46.048Z,50.18
2019-04-14T17:42:23.935Z,50.28
2019-04-14T17:44:52.483Z,50.21
2019-04-14T17:47:33.101Z,50.33
2019-04-14T17:50:07.407Z,50.29
2019-04-14T17:52:35.977Z,50.33
2019-04-14T17:55:19.918Z,50.31
2019-04-14T17:58:04.921Z,50.40
2019-04-14T18:00:42.695Z,50.37
2019-04-14T18:03:11.277Z,48.46
2019-04-14T18:05:39.835Z,38.30
2019-04-14T18:08:11.191Z,37.80
2019-04-14T18:10:55.002Z,39.88
2019-04-14T18:13:23.603Z,40.17
2019-04-14T18:16:04.134Z,40.32
2019-04-14T18:18:49.141Z,40.48
2019-04-14T18:21:16.057Z,40.91
2019-04-14T18:23:42.954Z,41.41
2019-04-14T18:26:10.150Z,42.35
2019-04-14T18:28:44.730Z,42.81
2019-04-14T18:31:19.016Z,42.73
2019-04-14T18:33:50.472Z,43.70
2019-04-14T18:36:35.548Z,44.12
2019-04-14T18:39:07.028Z,44.32
2019-04-14T18:41:44.460Z,44.66
2019-04-14T18:44:18.701Z,44.83
2019-04-14T18:46:56.085Z,44.98
2019-04-14T18:49:40.919Z,45.11
2019-04-14T18:52:27.644Z,45.33
2019-04-14T18:54:56.232Z,45.48
2019-04-14T18:57:33.567Z,45.61
2019-04-14T19:00:04.917Z,45.57
2019-04-14T19:02:31.871Z,45.86
2019-04-14T19:04:58.735Z,45.99
2019-04-14T19:07:25.638Z,46.08
2019-04-14T19:09:52.562Z,46.19
2019-04-14T19:12:21.143Z,46.22
2019-04-14T19:14:49.674Z,46.35
2019-04-14T19:17:21.231Z,46.41
2019-04-14T19:20:01.397Z,46.43
2019-04-14T19:22:21.038Z,46.56
2019-04-14T19:24:47.954Z,46.72
2019-04-14T19:27:14.865Z,46.73
2019-04-14T19:29:41.791Z,46.72
2019-04-14T19:32:08.695Z,47.03
2019-04-14T19:34:35.644Z,47.04
2019-04-14T19:37:02.536Z,47.62
2019-04-14T19:39:29.453Z,47.95
2019-04-14T19:41:56.370Z,48.04
2019-04-14T19:44:23.269Z,48.02
2019-04-14T19:46:50.228Z,48.03
2019-04-14T19:49:17.136Z,48.05
2019-04-14T19:51:44.044Z,48.10
2019-04-14T19:54:11.073Z,47.97
2019-04-14T19:56:37.999Z,48.06
2019-04-14T19:59:04.930Z,48.16
2019-04-14T20:01:31.881Z,48.36
2019-04-14T20:03:58.815Z,48.47
2019-04-14T20:06:25.841Z,48.45
2019-04-14T20:08:52.752Z,48.47
2019-04-14T20:11:19.707Z,48.56
2019-04-14T20:13:47.111Z,48.57
2019-04-14T20:16:27.627Z,48.60
2019-04-14T20:19:10.287Z,48.72
2019-04-14T20:21:44.388Z,48.74
2019-04-14T20:24:18.965Z,48.89
2019-04-14T20:27:01.602Z,48.91
2019-04-14T20:29:30.187Z,48.97
2019-04-14T20:32:01.525Z,48.97
2019-04-14T20:34:28.511Z,49.08
2019-04-14T20:36:55.493Z,49.09
2019-04-14T20:39:24.093Z,49.13
2019-04-14T20:41:51.000Z,49.11
2019-04-14T20:44:18.077Z,49.16
2019-04-14T20:46:45.007Z,49.19
2019-04-14T20:49:11.997Z,49.27
2019-04-14T20:51:38.953Z,49.30
2019-04-14T20:54:05.936Z,49.35
2019-04-14T20:56:32.893Z,49.36
2019-04-14T20:58:59.834Z,49.36
2019-04-14T21:01:28.359Z,49.44
2019-04-14T21:04:13.452Z,49.42
2019-04-14T21:06:44.788Z,49.51
2019-04-14T21:09:22.052Z,49.54
2019-04-14T21:11:56.754Z,49.60
2019-04-14T21:14:25.369Z,49.65
2019-04-14T21:17:06.305Z,49.70
2019-04-14T21:19:34.911Z,49.74
2019-04-14T21:22:03.501Z,49.73
2019-04-14T21:24:41.049Z,49.84
2019-04-14T21:27:09.642Z,49.82
2019-04-14T21:29:38.282Z,49.83
2019-04-14T21:32:06.882Z,49.82
2019-04-14T21:34:38.555Z,49.91
2019-04-14T21:37:07.144Z,50.00
2019-04-14T21:39:41.710Z,49.98
2019-04-14T21:42:08.642Z,50.00
2019-04-14T21:44:35.635Z,50.04
2019-04-14T21:47:02.603Z,50.06
2019-04-14T21:49:29.511Z,50.03
2019-04-14T21:51:58.051Z,50.10
2019-04-14T21:54:24.970Z,50.10
2019-04-14T21:56:53.543Z,50.15
2019-04-14T21:59:28.322Z,50.18
2019-04-14T22:02:13.409Z,50.24
2019-04-14T22:04:53.933Z,50.27
2019-04-14T22:07:25.419Z,50.25
2019-04-14T22:09:53.986Z,50.32
2019-04-14T22:12:20.954Z,50.30
2019-04-14T22:14:47.868Z,50.36
2019-04-14T22:17:14.866Z,50.36
2019-04-14T22:19:41.779Z,50.36
2019-04-14T22:22:08.704Z,50.39
2019-04-14T22:24:35.641Z,50.30
2019-04-14T22:27:02.552Z,50.46
2019-04-14T22:29:29.504Z,50.41
2019-04-14T22:31:56.415Z,50.41
2019-04-14T22:34:23.339Z,50.53
2019-04-14T22:36:50.318Z,50.44
2019-04-14T22:39:17.816Z,50.51
2019-04-14T22:41:44.736Z,50.50
2019-04-14T22:44:11.651Z,50.56
2019-04-14T22:46:38.560Z,50.54
2019-04-14T22:49:05.508Z,50.54
2019-04-14T22:51:32.432Z,50.54
2019-04-14T22:53:59.336Z,50.64
2019-04-14T22:56:38.296Z,50.54
2019-04-14T22:58:54.909Z,50.61
2019-04-14T23:01:23.522Z,50.64
2019-04-14T23:03:52.080Z,50.72
2019-04-14T23:06:23.603Z,50.67
2019-04-14T23:09:04.168Z,50.67
2019-04-14T23:11:48.932Z,50.72
2019-04-14T23:14:20.442Z,50.75
2019-04-14T23:17:05.468Z,50.77
2019-04-14T23:19:52.346Z,50.70
2019-04-14T23:22:20.966Z,50.78
2019-04-14T23:24:51.505Z,50.78
2019-04-14T23:27:18.481Z,50.79
2019-04-14T23:29:45.480Z,50.81
2019-04-14T23:32:12.446Z,50.81
2019-04-14T23:34:39.368Z,50.81
2019-04-14T23:37:06.345Z,50.87
2019-04-14T23:39:33.378Z,50.87
2019-04-14T23:42:00.299Z,50.95
2019-04-14T23:44:27.333Z,50.84
2019-04-14T23:46:54.329Z,50.89
2019-04-14T23:49:21.269Z,50.92
2019-04-14T23:51:48.347Z,50.99
2019-04-14T23:54:15.306Z,50.94
2019-04-14T23:56:42.258Z,50.93
2019-04-14T23:59:09.209Z,50.96
